sensor_id;sensor_type;location;lat;lon;timestamp;temperature;humidity
23748;DHT22;12054;53.662;10.126;2023-05-07T00:00:24;9.90;99.90
23748;DHT22;12054;53.662;10.126;2023-05-07T00:02:50;9.80;99.90
23748;DHT22;12054;53.662;10.126;2023-05-07T00:05:16;9.80;99.90
23748;DHT22;12054;53.662;10.126;2023-05-07T00:07:42;9.80;99.90
23748;DHT22;12054;53.662;10.126;2023-05-07T00:10:08;9.80;99.90
23748;DHT22;12054;53.662;10.126;2023-05-07T00:12:34;9.80;99.90
23748;DHT22;12054;53.662;10.126;2023-05-07T00:15:01;9.80;99.90
23748;DHT22;12054;53.662;10.126;2023-05-07T00:17:27;9.80;99.90
23748;DHT22;12054;53.662;10.126;2023-05-07T00:19:52;9.70;99.90
23748;DHT22;12054;53.662;10.126;2023-05-07T00:22:18;9.80;99.90
23748;DHT22;12054;53.662;10.126;2023-05-07T00:24:43;9.80;99.90
23748;DHT22;12054;53.662;10.126;2023-05-07T00:27:09;9.80;99.90
23748;DHT22;12054;53.662;10.126;2023-05-07T00:29:34;9.80;99.90
23748;DHT22;12054;53.662;10.126;2023-05-07T00:32:01;9.80;99.90
23748;DHT22;12054;53.662;10.126;2023-05-07T00:34:26;9.80;99.90
23748;DHT22;12054;53.662;10.126;2023-05-07T00:36:52;9.80;99.90
23748;DHT22;12054;53.662;10.126;2023-05-07T00:39:17;9.80;99.90
23748;DHT22;12054;53.662;10.126;2023-05-07T00:41:43;9.80;99.90
23748;DHT22;12054;53.662;10.126;2023-05-07T00:44:08;9.80;99.90
23748;DHT22;12054;53.662;10.126;2023-05-07T00:46:34;9.80;99.90
23748;DHT22;12054;53.662;10.126;2023-05-07T00:48:59;9.80;99.90
23748;DHT22;12054;53.662;10.126;2023-05-07T00:51:25;9.80;99.90
23748;DHT22;12054;53.662;10.126;2023-05-07T00:53:53;9.80;99.90
23748;DHT22;12054;53.662;10.126;2023-05-07T00:56:20;9.80;99.90
23748;DHT22;12054;53.662;10.126;2023-05-07T00:58:45;9.80;99.90
23748;DHT22;12054;53.662;10.126;2023-05-07T01:01:11;9.70;99.90
23748;DHT22;12054;53.662;10.126;2023-05-07T01:03:37;9.70;99.90
23748;DHT22;12054;53.662;10.126;2023-05-07T01:06:03;9.70;99.90
23748;DHT22;12054;53.662;10.126;2023-05-07T01:08:29;9.80;99.90
23748;DHT22;12054;53.662;10.126;2023-05-07T01:10:56;9.70;99.90
23748;DHT22;12054;53.662;10.126;2023-05-07T01:13:22;9.80;99.90
23748;DHT22;12054;53.662;10.126;2023-05-07T01:15:49;9.80;99.90
23748;DHT22;12054;53.662;10.126;2023-05-07T01:18:15;9.70;99.90
23748;DHT22;12054;53.662;10.126;2023-05-07T01:20:41;9.80;99.90
23748;DHT22;12054;53.662;10.126;2023-05-07T01:23:08;9.70;99.90
23748;DHT22;12054;53.662;10.126;2023-05-07T01:25:34;9.80;99.90
23748;DHT22;12054;53.662;10.126;2023-05-07T01:28:00;9.70;99.90
23748;DHT22;12054;53.662;10.126;2023-05-07T01:30:27;9.70;99.90
23748;DHT22;12054;53.662;10.126;2023-05-07T01:33:06;9.80;99.90
23748;DHT22;12054;53.662;10.126;2023-05-07T01:35:42;9.70;99.90
23748;DHT22;12054;53.662;10.126;2023-05-07T01:38:09;9.80;99.90
23748;DHT22;12054;53.662;10.126;2023-05-07T01:40:34;9.70;99.90
23748;DHT22;12054;53.662;10.126;2023-05-07T01:43:02;9.70;99.90
23748;DHT22;12054;53.662;10.126;2023-05-07T01:45:28;9.70;99.90
23748;DHT22;12054;53.662;10.126;2023-05-07T01:47:54;9.70;99.90
23748;DHT22;12054;53.662;10.126;2023-05-07T01:50:20;9.70;99.90
23748;DHT22;12054;53.662;10.126;2023-05-07T01:52:49;9.70;99.90
23748;DHT22;12054;53.662;10.126;2023-05-07T01:55:15;9.70;99.90
23748;DHT22;12054;53.662;10.126;2023-05-07T01:57:40;9.70;99.90
23748;DHT22;12054;53.662;10.126;2023-05-07T02:00:07;9.70;99.90
23748;DHT22;12054;53.662;10.126;2023-05-07T02:02:33;9.70;99.90
23748;DHT22;12054;53.662;10.126;2023-05-07T02:04:59;9.60;99.90
23748;DHT22;12054;53.662;10.126;2023-05-07T02:07:26;9.70;99.90
23748;DHT22;12054;53.662;10.126;2023-05-07T02:09:51;9.70;99.90
23748;DHT22;12054;53.662;10.126;2023-05-07T02:12:17;9.70;99.90
23748;DHT22;12054;53.662;10.126;2023-05-07T02:14:42;9.60;99.90
23748;DHT22;12054;53.662;10.126;2023-05-07T02:17:08;9.60;99.90
23748;DHT22;12054;53.662;10.126;2023-05-07T02:19:33;9.60;99.90
23748;DHT22;12054;53.662;10.126;2023-05-07T02:21:59;9.60;99.90
23748;DHT22;12054;53.662;10.126;2023-05-07T02:24:25;9.60;99.90
23748;DHT22;12054;53.662;10.126;2023-05-07T02:26:50;9.60;99.90
23748;DHT22;12054;53.662;10.126;2023-05-07T02:29:16;9.60;99.90
23748;DHT22;12054;53.662;10.126;2023-05-07T02:31:41;9.60;99.90
23748;DHT22;12054;53.662;10.126;2023-05-07T02:34:07;9.60;99.90
23748;DHT22;12054;53.662;10.126;2023-05-07T02:36:32;9.60;99.90
23748;DHT22;12054;53.662;10.126;2023-05-07T02:39:01;9.60;99.90
23748;DHT22;12054;53.662;10.126;2023-05-07T02:41:27;9.60;99.90
23748;DHT22;12054;53.662;10.126;2023-05-07T02:43:53;9.60;99.90
23748;DHT22;12054;53.662;10.126;2023-05-07T02:46:18;9.60;99.90
23748;DHT22;12054;53.662;10.126;2023-05-07T02:48:44;9.60;99.90
23748;DHT22;12054;53.662;10.126;2023-05-07T02:51:10;9.60;99.90
23748;DHT22;12054;53.662;10.126;2023-05-07T02:53:35;9.60;99.90
23748;DHT22;12054;53.662;10.126;2023-05-07T02:56:01;9.60;99.90
23748;DHT22;12054;53.662;10.126;2023-05-07T02:58:27;9.60;99.90
23748;DHT22;12054;53.662;10.126;2023-05-07T03:00:53;9.60;99.90
23748;DHT22;12054;53.662;10.126;2023-05-07T03:03:20;9.60;99.90
23748;DHT22;12054;53.662;10.126;2023-05-07T03:05:45;9.60;99.90
23748;DHT22;12054;53.662;10.126;2023-05-07T03:08:13;9.60;99.90
23748;DHT22;12054;53.662;10.126;2023-05-07T03:10:38;9.70;99.90
23748;DHT22;12054;53.662;10.126;2023-05-07T03:13:04;9.70;99.90
23748;DHT22;12054;53.662;10.126;2023-05-07T03:15:33;9.70;99.90
23748;DHT22;12054;53.662;10.126;2023-05-07T03:17:58;9.70;99.90
23748;DHT22;12054;53.662;10.126;2023-05-07T03:20:24;9.60;99.90
23748;DHT22;12054;53.662;10.126;2023-05-07T03:22:49;9.60;99.90
23748;DHT22;12054;53.662;10.126;2023-05-07T03:25:15;9.60;99.90
23748;DHT22;12054;53.662;10.126;2023-05-07T03:27:40;9.60;99.90
23748;DHT22;12054;53.662;10.126;2023-05-07T03:30:07;9.60;99.90
23748;DHT22;12054;53.662;10.126;2023-05-07T03:32:34;9.60;99.90
23748;DHT22;12054;53.662;10.126;2023-05-07T03:35:00;9.60;99.90
23748;DHT22;12054;53.662;10.126;2023-05-07T03:37:26;9.60;99.90
23748;DHT22;12054;53.662;10.126;2023-05-07T03:39:51;9.60;99.90
23748;DHT22;12054;53.662;10.126;2023-05-07T03:42:17;9.60;99.90
23748;DHT22;12054;53.662;10.126;2023-05-07T03:44:42;9.60;99.90
23748;DHT22;12054;53.662;10.126;2023-05-07T03:47:08;9.60;99.90
23748;DHT22;12054;53.662;10.126;2023-05-07T03:49:35;9.60;99.90
23748;DHT22;12054;53.662;10.126;2023-05-07T03:52:01;9.50;99.90
23748;DHT22;12054;53.662;10.126;2023-05-07T03:54:26;9.60;99.90
23748;DHT22;12054;53.662;10.126;2023-05-07T03:56:52;9.60;99.90
23748;DHT22;12054;53.662;10.126;2023-05-07T03:59:17;9.60;99.90
23748;DHT22;12054;53.662;10.126;2023-05-07T04:01:43;9.60;99.90
23748;DHT22;12054;53.662;10.126;2023-05-07T04:04:08;9.50;99.90
23748;DHT22;12054;53.662;10.126;2023-05-07T04:06:34;9.60;99.90
23748;DHT22;12054;53.662;10.126;2023-05-07T04:09:06;9.60;99.90
23748;DHT22;12054;53.662;10.126;2023-05-07T04:11:33;9.50;99.90
23748;DHT22;12054;53.662;10.126;2023-05-07T04:13:58;9.60;99.90
23748;DHT22;12054;53.662;10.126;2023-05-07T04:16:24;9.50;99.90
23748;DHT22;12054;53.662;10.126;2023-05-07T04:18:49;9.50;99.90
23748;DHT22;12054;53.662;10.126;2023-05-07T04:21:16;9.50;99.90
23748;DHT22;12054;53.662;10.126;2023-05-07T04:23:42;9.50;99.90
23748;DHT22;12054;53.662;10.126;2023-05-07T04:26:08;9.50;99.90
23748;DHT22;12054;53.662;10.126;2023-05-07T04:28:34;9.50;99.90
23748;DHT22;12054;53.662;10.126;2023-05-07T04:31:00;9.60;99.90
23748;DHT22;12054;53.662;10.126;2023-05-07T04:33:26;9.50;99.90
23748;DHT22;12054;53.662;10.126;2023-05-07T04:35:51;9.60;99.90
23748;DHT22;12054;53.662;10.126;2023-05-07T04:38:17;9.50;99.90
23748;DHT22;12054;53.662;10.126;2023-05-07T04:40:43;9.50;99.90
23748;DHT22;12054;53.662;10.126;2023-05-07T04:43:09;9.60;99.90
23748;DHT22;12054;53.662;10.126;2023-05-07T04:45:38;9.50;99.90
23748;DHT22;12054;53.662;10.126;2023-05-07T04:48:05;9.60;99.90
23748;DHT22;12054;53.662;10.126;2023-05-07T04:50:31;9.50;99.90
23748;DHT22;12054;53.662;10.126;2023-05-07T04:52:56;9.60;99.90
23748;DHT22;12054;53.662;10.126;2023-05-07T04:55:22;9.60;99.90
23748;DHT22;12054;53.662;10.126;2023-05-07T04:57:47;9.50;99.90
23748;DHT22;12054;53.662;10.126;2023-05-07T05:00:13;9.50;99.90
23748;DHT22;12054;53.662;10.126;2023-05-07T05:02:45;9.60;99.90
23748;DHT22;12054;53.662;10.126;2023-05-07T05:05:10;9.50;99.90
23748;DHT22;12054;53.662;10.126;2023-05-07T05:07:36;9.60;99.90
23748;DHT22;12054;53.662;10.126;2023-05-07T05:10:02;9.60;99.90
23748;DHT22;12054;53.662;10.126;2023-05-07T05:12:29;9.60;99.90
23748;DHT22;12054;53.662;10.126;2023-05-07T05:14:54;9.60;99.90
23748;DHT22;12054;53.662;10.126;2023-05-07T05:17:20;9.60;99.90
23748;DHT22;12054;53.662;10.126;2023-05-07T05:19:45;9.60;99.90
23748;DHT22;12054;53.662;10.126;2023-05-07T05:22:11;9.60;99.90
23748;DHT22;12054;53.662;10.126;2023-05-07T05:24:36;9.60;99.90
23748;DHT22;12054;53.662;10.126;2023-05-07T05:27:02;9.60;99.90
23748;DHT22;12054;53.662;10.126;2023-05-07T05:29:28;9.60;99.90
23748;DHT22;12054;53.662;10.126;2023-05-07T05:31:53;9.60;99.90
23748;DHT22;12054;53.662;10.126;2023-05-07T05:34:19;9.60;99.90
23748;DHT22;12054;53.662;10.126;2023-05-07T05:36:47;9.60;99.90
23748;DHT22;12054;53.662;10.126;2023-05-07T05:39:12;9.70;99.90
23748;DHT22;12054;53.662;10.126;2023-05-07T05:41:38;9.60;99.90
23748;DHT22;12054;53.662;10.126;2023-05-07T05:44:03;9.60;99.90
23748;DHT22;12054;53.662;10.126;2023-05-07T05:46:29;9.70;99.90
23748;DHT22;12054;53.662;10.126;2023-05-07T05:48:55;9.70;99.90
23748;DHT22;12054;53.662;10.126;2023-05-07T05:51:21;9.70;99.90
23748;DHT22;12054;53.662;10.126;2023-05-07T05:53:47;9.70;99.90
23748;DHT22;12054;53.662;10.126;2023-05-07T05:56:12;9.70;99.90
23748;DHT22;12054;53.662;10.126;2023-05-07T05:58:38;9.70;99.90
23748;DHT22;12054;53.662;10.126;2023-05-07T06:01:03;9.70;99.90
23748;DHT22;12054;53.662;10.126;2023-05-07T06:03:30;9.70;99.90
23748;DHT22;12054;53.662;10.126;2023-05-07T06:05:57;9.80;99.90
23748;DHT22;12054;53.662;10.126;2023-05-07T06:08:23;9.70;99.90
23748;DHT22;12054;53.662;10.126;2023-05-07T06:10:48;9.80;99.90
23748;DHT22;12054;53.662;10.126;2023-05-07T06:13:14;9.80;99.90
23748;DHT22;12054;53.662;10.126;2023-05-07T06:15:39;9.80;99.90
23748;DHT22;12054;53.662;10.126;2023-05-07T06:18:05;9.80;99.90
23748;DHT22;12054;53.662;10.126;2023-05-07T06:20:30;9.80;99.90
23748;DHT22;12054;53.662;10.126;2023-05-07T06:22:55;9.90;99.90
23748;DHT22;12054;53.662;10.126;2023-05-07T06:25:21;9.90;99.90
23748;DHT22;12054;53.662;10.126;2023-05-07T06:27:46;9.90;99.90
23748;DHT22;12054;53.662;10.126;2023-05-07T06:30:12;9.90;99.90
23748;DHT22;12054;53.662;10.126;2023-05-07T06:32:39;9.90;99.90
23748;DHT22;12054;53.662;10.126;2023-05-07T06:35:05;10.00;99.90
23748;DHT22;12054;53.662;10.126;2023-05-07T06:37:31;10.00;99.90
23748;DHT22;12054;53.662;10.126;2023-05-07T06:39:56;10.00;99.90
23748;DHT22;12054;53.662;10.126;2023-05-07T06:42:22;10.00;99.90
23748;DHT22;12054;53.662;10.126;2023-05-07T06:44:47;10.00;99.90
23748;DHT22;12054;53.662;10.126;2023-05-07T06:47:14;10.00;99.90
23748;DHT22;12054;53.662;10.126;2023-05-07T06:49:39;10.10;99.90
23748;DHT22;12054;53.662;10.126;2023-05-07T06:52:05;10.00;99.90
23748;DHT22;12054;53.662;10.126;2023-05-07T06:54:30;10.10;99.90
23748;DHT22;12054;53.662;10.126;2023-05-07T06:56:56;10.10;99.90
23748;DHT22;12054;53.662;10.126;2023-05-07T06:59:21;10.10;99.90
23748;DHT22;12054;53.662;10.126;2023-05-07T07:01:47;10.10;99.90
23748;DHT22;12054;53.662;10.126;2023-05-07T07:04:12;10.20;99.90
23748;DHT22;12054;53.662;10.126;2023-05-07T07:06:38;10.20;99.90
23748;DHT22;12054;53.662;10.126;2023-05-07T07:09:03;10.20;99.90
23748;DHT22;12054;53.662;10.126;2023-05-07T07:11:29;10.20;99.90
23748;DHT22;12054;53.662;10.126;2023-05-07T07:13:54;10.20;99.90
23748;DHT22;12054;53.662;10.126;2023-05-07T07:16:21;10.20;99.90
23748;DHT22;12054;53.662;10.126;2023-05-07T07:18:47;10.30;99.90
23748;DHT22;12054;53.662;10.126;2023-05-07T07:21:12;10.30;99.90
23748;DHT22;12054;53.662;10.126;2023-05-07T07:23:39;10.30;99.90
23748;DHT22;12054;53.662;10.126;2023-05-07T07:26:04;10.30;99.90
23748;DHT22;12054;53.662;10.126;2023-05-07T07:28:31;10.30;99.90
23748;DHT22;12054;53.662;10.126;2023-05-07T07:30:56;10.30;99.90
23748;DHT22;12054;53.662;10.126;2023-05-07T07:33:22;10.40;99.90
23748;DHT22;12054;53.662;10.126;2023-05-07T07:35:47;10.40;99.90
23748;DHT22;12054;53.662;10.126;2023-05-07T07:38:13;10.40;99.90
23748;DHT22;12054;53.662;10.126;2023-05-07T07:40:38;10.40;99.90
23748;DHT22;12054;53.662;10.126;2023-05-07T07:43:04;10.40;99.90
23748;DHT22;12054;53.662;10.126;2023-05-07T07:45:30;10.50;99.90
23748;DHT22;12054;53.662;10.126;2023-05-07T07:47:55;10.50;99.90
23748;DHT22;12054;53.662;10.126;2023-05-07T07:50:21;10.50;99.90
23748;DHT22;12054;53.662;10.126;2023-05-07T07:52:47;10.50;99.90
23748;DHT22;12054;53.662;10.126;2023-05-07T07:55:13;10.50;99.90
23748;DHT22;12054;53.662;10.126;2023-05-07T07:57:39;10.50;99.90
23748;DHT22;12054;53.662;10.126;2023-05-07T08:00:05;10.50;99.90
23748;DHT22;12054;53.662;10.126;2023-05-07T08:02:32;10.60;99.90
23748;DHT22;12054;53.662;10.126;2023-05-07T08:04:57;10.60;99.90
23748;DHT22;12054;53.662;10.126;2023-05-07T08:07:23;10.60;99.90
23748;DHT22;12054;53.662;10.126;2023-05-07T08:09:48;10.60;99.90
23748;DHT22;12054;53.662;10.126;2023-05-07T08:12:15;10.60;99.90
23748;DHT22;12054;53.662;10.126;2023-05-07T08:14:41;10.60;99.90
23748;DHT22;12054;53.662;10.126;2023-05-07T08:17:06;10.60;99.90
23748;DHT22;12054;53.662;10.126;2023-05-07T08:19:32;10.60;99.90
23748;DHT22;12054;53.662;10.126;2023-05-07T08:21:58;10.60;99.90
23748;DHT22;12054;53.662;10.126;2023-05-07T08:24:23;10.70;99.90
23748;DHT22;12054;53.662;10.126;2023-05-07T08:26:49;10.70;99.90
23748;DHT22;12054;53.662;10.126;2023-05-07T08:29:15;10.70;99.90
23748;DHT22;12054;53.662;10.126;2023-05-07T08:31:40;10.80;99.90
23748;DHT22;12054;53.662;10.126;2023-05-07T08:34:06;10.80;99.90
23748;DHT22;12054;53.662;10.126;2023-05-07T08:36:32;10.90;99.90
23748;DHT22;12054;53.662;10.126;2023-05-07T08:38:57;10.90;99.90
23748;DHT22;12054;53.662;10.126;2023-05-07T08:41:23;10.90;99.90
23748;DHT22;12054;53.662;10.126;2023-05-07T08:43:50;10.90;99.90
23748;DHT22;12054;53.662;10.126;2023-05-07T08:46:20;10.90;99.90
23748;DHT22;12054;53.662;10.126;2023-05-07T08:48:50;11.00;99.90
23748;DHT22;12054;53.662;10.126;2023-05-07T08:51:17;11.00;99.90
23748;DHT22;12054;53.662;10.126;2023-05-07T08:53:44;11.10;99.90
23748;DHT22;12054;53.662;10.126;2023-05-07T08:56:10;11.00;99.90
23748;DHT22;12054;53.662;10.126;2023-05-07T08:58:36;11.10;99.90
23748;DHT22;12054;53.662;10.126;2023-05-07T09:01:10;11.10;99.90
23748;DHT22;12054;53.662;10.126;2023-05-07T09:03:38;11.10;99.90
23748;DHT22;12054;53.662;10.126;2023-05-07T09:06:08;11.10;99.90
23748;DHT22;12054;53.662;10.126;2023-05-07T09:08:34;11.10;99.90
23748;DHT22;12054;53.662;10.126;2023-05-07T09:11:00;11.20;99.90
23748;DHT22;12054;53.662;10.126;2023-05-07T09:13:27;11.10;99.90
23748;DHT22;12054;53.662;10.126;2023-05-07T09:15:53;11.20;99.90
23748;DHT22;12054;53.662;10.126;2023-05-07T09:18:18;11.20;99.90
23748;DHT22;12054;53.662;10.126;2023-05-07T09:20:44;11.20;99.90
23748;DHT22;12054;53.662;10.126;2023-05-07T09:23:10;11.30;99.90
23748;DHT22;12054;53.662;10.126;2023-05-07T09:25:36;11.30;99.90
23748;DHT22;12054;53.662;10.126;2023-05-07T09:28:03;11.20;99.90
23748;DHT22;12054;53.662;10.126;2023-05-07T09:30:30;11.30;99.90
23748;DHT22;12054;53.662;10.126;2023-05-07T09:32:57;11.30;99.90
23748;DHT22;12054;53.662;10.126;2023-05-07T09:35:24;11.30;99.90
23748;DHT22;12054;53.662;10.126;2023-05-07T09:37:53;11.30;99.90
23748;DHT22;12054;53.662;10.126;2023-05-07T09:40:24;11.40;99.90
23748;DHT22;12054;53.662;10.126;2023-05-07T09:42:50;11.40;99.90
23748;DHT22;12054;53.662;10.126;2023-05-07T09:45:25;11.40;99.90
23748;DHT22;12054;53.662;10.126;2023-05-07T09:47:57;11.40;99.90
23748;DHT22;12054;53.662;10.126;2023-05-07T09:50:28;11.50;99.90
23748;DHT22;12054;53.662;10.126;2023-05-07T09:52:55;11.50;99.90
23748;DHT22;12054;53.662;10.126;2023-05-07T09:55:21;11.50;99.90
23748;DHT22;12054;53.662;10.126;2023-05-07T09:57:52;11.50;99.90
23748;DHT22;12054;53.662;10.126;2023-05-07T10:00:21;11.60;99.90
23748;DHT22;12054;53.662;10.126;2023-05-07T10:02:52;11.60;99.90
23748;DHT22;12054;53.662;10.126;2023-05-07T10:05:21;11.70;99.90
23748;DHT22;12054;53.662;10.126;2023-05-07T10:07:48;11.70;99.90
23748;DHT22;12054;53.662;10.126;2023-05-07T10:10:21;11.70;99.90
23748;DHT22;12054;53.662;10.126;2023-05-07T10:12:47;11.70;99.90
23748;DHT22;12054;53.662;10.126;2023-05-07T10:15:13;11.70;99.90
23748;DHT22;12054;53.662;10.126;2023-05-07T10:17:40;11.80;99.90
23748;DHT22;12054;53.662;10.126;2023-05-07T10:20:06;11.80;99.90
23748;DHT22;12054;53.662;10.126;2023-05-07T10:22:43;11.90;99.90
23748;DHT22;12054;53.662;10.126;2023-05-07T10:25:18;12.00;99.90
23748;DHT22;12054;53.662;10.126;2023-05-07T10:27:45;12.00;99.90
23748;DHT22;12054;53.662;10.126;2023-05-07T10:33:11;12.20;99.90
23748;DHT22;12054;53.662;10.126;2023-05-07T10:35:42;12.20;99.90
23748;DHT22;12054;53.662;10.126;2023-05-07T10:38:08;12.30;99.90
23748;DHT22;12054;53.662;10.126;2023-05-07T10:40:34;12.40;99.90
23748;DHT22;12054;53.662;10.126;2023-05-07T10:43:02;12.50;99.90
23748;DHT22;12054;53.662;10.126;2023-05-07T10:45:30;12.50;99.90
23748;DHT22;12054;53.662;10.126;2023-05-07T10:48:15;12.50;99.90
23748;DHT22;12054;53.662;10.126;2023-05-07T10:50:45;12.50;99.90
23748;DHT22;12054;53.662;10.126;2023-05-07T10:55:42;12.60;99.90
23748;DHT22;12054;53.662;10.126;2023-05-07T10:58:26;12.70;99.90
23748;DHT22;12054;53.662;10.126;2023-05-07T11:01:02;12.70;99.90
23748;DHT22;12054;53.662;10.126;2023-05-07T11:03:28;12.80;99.90
23748;DHT22;12054;53.662;10.126;2023-05-07T11:06:11;12.90;99.90
23748;DHT22;12054;53.662;10.126;2023-05-07T11:08:56;12.90;99.90
23748;DHT22;12054;53.662;10.126;2023-05-07T11:11:47;13.00;99.90
23748;DHT22;12054;53.662;10.126;2023-05-07T11:14:22;13.00;99.90
23748;DHT22;12054;53.662;10.126;2023-05-07T11:17:03;13.10;99.90
23748;DHT22;12054;53.662;10.126;2023-05-07T11:19:51;13.20;99.90
23748;DHT22;12054;53.662;10.126;2023-05-07T11:25:05;13.20;99.90
23748;DHT22;12054;53.662;10.126;2023-05-07T11:27:32;13.30;99.90
23748;DHT22;12054;53.662;10.126;2023-05-07T11:29:58;13.30;99.90
23748;DHT22;12054;53.662;10.126;2023-05-07T11:32:28;13.40;99.90
23748;DHT22;12054;53.662;10.126;2023-05-07T11:34:58;13.50;99.90
23748;DHT22;12054;53.662;10.126;2023-05-07T11:37:25;13.60;99.90
23748;DHT22;12054;53.662;10.126;2023-05-07T11:40:05;13.60;99.90
23748;DHT22;12054;53.662;10.126;2023-05-07T11:42:33;13.70;99.90
23748;DHT22;12054;53.662;10.126;2023-05-07T11:44:59;13.60;99.90
23748;DHT22;12054;53.662;10.126;2023-05-07T11:47:25;13.70;99.90
23748;DHT22;12054;53.662;10.126;2023-05-07T11:49:54;13.70;99.90
23748;DHT22;12054;53.662;10.126;2023-05-07T11:52:22;13.70;99.90
23748;DHT22;12054;53.662;10.126;2023-05-07T11:54:52;13.70;99.90
23748;DHT22;12054;53.662;10.126;2023-05-07T11:57:18;13.80;99.90
23748;DHT22;12054;53.662;10.126;2023-05-07T11:59:44;13.90;99.90
23748;DHT22;12054;53.662;10.126;2023-05-07T12:02:10;13.90;99.90
23748;DHT22;12054;53.662;10.126;2023-05-07T12:04:35;14.00;99.90
23748;DHT22;12054;53.662;10.126;2023-05-07T12:07:01;14.10;99.90
23748;DHT22;12054;53.662;10.126;2023-05-07T12:09:26;14.10;99.90
23748;DHT22;12054;53.662;10.126;2023-05-07T12:11:53;14.20;99.90
23748;DHT22;12054;53.662;10.126;2023-05-07T12:14:19;14.20;99.90
23748;DHT22;12054;53.662;10.126;2023-05-07T12:16:45;14.30;99.90
23748;DHT22;12054;53.662;10.126;2023-05-07T12:19:11;14.40;99.90
23748;DHT22;12054;53.662;10.126;2023-05-07T12:21:40;14.40;99.90
23748;DHT22;12054;53.662;10.126;2023-05-07T12:24:08;14.40;99.90
23748;DHT22;12054;53.662;10.126;2023-05-07T12:26:38;14.50;99.90
23748;DHT22;12054;53.662;10.126;2023-05-07T12:29:03;14.60;99.90
23748;DHT22;12054;53.662;10.126;2023-05-07T12:31:29;14.60;99.90
23748;DHT22;12054;53.662;10.126;2023-05-07T12:33:54;14.70;99.90
23748;DHT22;12054;53.662;10.126;2023-05-07T12:36:20;14.80;99.90
23748;DHT22;12054;53.662;10.126;2023-05-07T12:38:49;14.90;99.90
23748;DHT22;12054;53.662;10.126;2023-05-07T12:41:15;15.00;99.90
23748;DHT22;12054;53.662;10.126;2023-05-07T12:43:44;15.10;99.90
23748;DHT22;12054;53.662;10.126;2023-05-07T12:46:09;15.20;99.90
23748;DHT22;12054;53.662;10.126;2023-05-07T12:48:43;15.30;99.90
23748;DHT22;12054;53.662;10.126;2023-05-07T12:51:08;15.30;99.90
23748;DHT22;12054;53.662;10.126;2023-05-07T12:53:40;15.40;99.90
23748;DHT22;12054;53.662;10.126;2023-05-07T12:56:05;15.40;99.90
23748;DHT22;12054;53.662;10.126;2023-05-07T12:58:34;15.40;99.90
23748;DHT22;12054;53.662;10.126;2023-05-07T13:01:05;15.50;99.90
23748;DHT22;12054;53.662;10.126;2023-05-07T13:03:33;15.50;99.90
23748;DHT22;12054;53.662;10.126;2023-05-07T13:06:08;15.50;99.90
23748;DHT22;12054;53.662;10.126;2023-05-07T13:08:39;15.50;99.90
23748;DHT22;12054;53.662;10.126;2023-05-07T13:11:08;15.50;99.90
23748;DHT22;12054;53.662;10.126;2023-05-07T13:13:35;15.50;99.90
23748;DHT22;12054;53.662;10.126;2023-05-07T13:16:01;15.50;99.90
23748;DHT22;12054;53.662;10.126;2023-05-07T13:18:31;15.60;99.90
23748;DHT22;12054;53.662;10.126;2023-05-07T13:20:56;15.60;99.90
23748;DHT22;12054;53.662;10.126;2023-05-07T13:23:22;15.60;99.90
23748;DHT22;12054;53.662;10.126;2023-05-07T13:25:49;15.60;99.90
23748;DHT22;12054;53.662;10.126;2023-05-07T13:28:14;15.70;99.90
23748;DHT22;12054;53.662;10.126;2023-05-07T13:30:40;15.70;99.90
23748;DHT22;12054;53.662;10.126;2023-05-07T13:33:08;15.80;99.90
23748;DHT22;12054;53.662;10.126;2023-05-07T13:35:34;15.80;99.90
23748;DHT22;12054;53.662;10.126;2023-05-07T13:38:00;15.80;99.90
23748;DHT22;12054;53.662;10.126;2023-05-07T13:40:25;15.80;99.90
23748;DHT22;12054;53.662;10.126;2023-05-07T13:42:51;15.80;99.90
23748;DHT22;12054;53.662;10.126;2023-05-07T13:45:18;15.80;99.90
23748;DHT22;12054;53.662;10.126;2023-05-07T13:47:44;15.80;99.90
23748;DHT22;12054;53.662;10.126;2023-05-07T13:50:10;15.90;99.90
23748;DHT22;12054;53.662;10.126;2023-05-07T13:52:37;16.00;99.90
23748;DHT22;12054;53.662;10.126;2023-05-07T13:55:03;16.10;99.90
23748;DHT22;12054;53.662;10.126;2023-05-07T13:57:29;16.10;99.90
23748;DHT22;12054;53.662;10.126;2023-05-07T13:59:55;16.20;99.90
23748;DHT22;12054;53.662;10.126;2023-05-07T14:02:20;16.20;99.90
23748;DHT22;12054;53.662;10.126;2023-05-07T14:04:46;16.20;99.90
23748;DHT22;12054;53.662;10.126;2023-05-07T14:07:11;16.10;99.90
23748;DHT22;12054;53.662;10.126;2023-05-07T14:09:37;16.10;99.90
23748;DHT22;12054;53.662;10.126;2023-05-07T14:12:03;16.10;99.90
23748;DHT22;12054;53.662;10.126;2023-05-07T14:14:29;16.10;99.90
23748;DHT22;12054;53.662;10.126;2023-05-07T14:16:55;16.10;99.90
23748;DHT22;12054;53.662;10.126;2023-05-07T14:19:21;16.10;99.90
23748;DHT22;12054;53.662;10.126;2023-05-07T14:21:48;16.10;99.90
23748;DHT22;12054;53.662;10.126;2023-05-07T14:24:13;16.10;99.90
23748;DHT22;12054;53.662;10.126;2023-05-07T14:26:39;16.20;99.90
23748;DHT22;12054;53.662;10.126;2023-05-07T14:29:04;16.20;99.90
23748;DHT22;12054;53.662;10.126;2023-05-07T14:31:30;16.20;99.90
23748;DHT22;12054;53.662;10.126;2023-05-07T14:33:56;16.30;99.90
23748;DHT22;12054;53.662;10.126;2023-05-07T14:36:23;16.30;99.90
23748;DHT22;12054;53.662;10.126;2023-05-07T14:38:51;16.30;99.90
23748;DHT22;12054;53.662;10.126;2023-05-07T14:41:17;16.30;99.90
23748;DHT22;12054;53.662;10.126;2023-05-07T14:43:43;16.20;99.90
23748;DHT22;12054;53.662;10.126;2023-05-07T14:46:15;16.20;99.90
23748;DHT22;12054;53.662;10.126;2023-05-07T14:48:41;16.10;99.90
23748;DHT22;12054;53.662;10.126;2023-05-07T14:51:07;16.20;99.90
23748;DHT22;12054;53.662;10.126;2023-05-07T14:53:32;16.20;99.90
23748;DHT22;12054;53.662;10.126;2023-05-07T14:55:58;16.10;99.90
23748;DHT22;12054;53.662;10.126;2023-05-07T14:58:23;16.20;99.90
23748;DHT22;12054;53.662;10.126;2023-05-07T15:00:50;16.10;99.90
23748;DHT22;12054;53.662;10.126;2023-05-07T15:03:15;16.10;99.90
23748;DHT22;12054;53.662;10.126;2023-05-07T15:05:41;16.10;99.90
23748;DHT22;12054;53.662;10.126;2023-05-07T15:08:06;16.10;99.90
23748;DHT22;12054;53.662;10.126;2023-05-07T15:10:35;16.20;99.90
23748;DHT22;12054;53.662;10.126;2023-05-07T15:13:08;16.10;99.90
23748;DHT22;12054;53.662;10.126;2023-05-07T15:15:33;16.20;99.90
23748;DHT22;12054;53.662;10.126;2023-05-07T15:17:59;16.20;99.90
23748;DHT22;12054;53.662;10.126;2023-05-07T15:20:29;16.20;99.90
23748;DHT22;12054;53.662;10.126;2023-05-07T15:22:54;16.30;99.90
23748;DHT22;12054;53.662;10.126;2023-05-07T15:25:21;16.20;99.90
23748;DHT22;12054;53.662;10.126;2023-05-07T15:27:46;16.30;99.90